KBJI/BJI METAR and TAF weather

Enter ICAO airport designator
Station Type Date Time Source
KBJI METAR 2018/10/16 20:35 UTC NOAA

KBJI 162035Z AUTO 31014G17KT 10SM OVC025 02/M03 A3005 RMK AO2 T00181032


Station Type Date Time Source
KBJI Decoded METAR 2018/10/16 20:35 UTC NOAA

Bemidji, MN, United States (KBJI) 47-30N 094-56W 420M
Oct 16, 2018 - 04:35 PM EDT / 2018.10.16 2035 UTC
Wind: from the NW (310 degrees) at 16 MPH (14 KT) gusting to 20 MPH (17 KT):0
Visibility: 10 mile(s):0
Sky conditions: overcast
Temperature: 35.2 F (1.8 C)
Dew Point: 26.2 F (-3.2 C)
Relative Humidity: 69%
Pressure (altimeter): 30.05 in. Hg (1017 hPa)
ob: KBJI 162035Z AUTO 31014G17KT 10SM OVC025 02/M03 A3005 RMK AO2 T00181032
cycle: 20

Station Type Date Time Source
KBJI TAF 2018/10/16 18:45 UTC NOAA

TAF KBJI 161743Z 1618/1718 30015G22KT P6SM BKN025
FM170200 30014KT P6SM OVC030
FM171200 30006KT P6SM BKN045


Example: see airport list